Cosco China — DCSL2 — position and weather

sailwx.info

Track history (hours):
 
Tides and Currents Weather Stations Pressure Air Temp Water Temp Dewpoint Dewpoint Depression Visibility Wind Speed Wind Dir Waves Ship Positions

Cosco China

Last reported at 2015-Jan-15 08:12 UTC. Time now 2015-Jan-29 22:25 UTC.
Position S 24°10' W 046°22'.
Warning: this ship's position is 14 days out of date.

Length 334 m; draft 11 m.

Type: Cargo ship. MMSI: 218536000.

Date/timePositionNaut miles runAvg speedWind from/ knotsBaromVisibWave heightAir tempDewpointWater temp
2015-Jan-15 08:12S 24°10' W 046°22'914.7
2015-Jan-15 07:33S 24°01' W 046°20'4 3.6
2015-Jan-15 06:33S 23°58' W 046°18'0 0.0
2015-Jan-15 05:33S 23°58' W 046°18'0 0.0
2015-Jan-15 04:33S 23°58' W 046°18'0 0.0
2015-Jan-15 03:30S 23°58' W 046°18'0 0.0
2015-Jan-15 02:33S 23°58' W 046°18'0 0.0
2015-Jan-15 01:33S 23°58' W 046°18'0 0.0
2015-Jan-15 00:30S 23°58' W 046°18'0 0.0
2015-Jan-14 23:33S 23°58' W 046°18'0 0.0
2015-Jan-14 22:33S 23°58' W 046°18'0 0.0
2015-Jan-14 21:21S 23°58' W 046°18'0 0.0
2015-Jan-14 20:33S 23°58' W 046°18'0 0.0
2015-Jan-14 19:30S 23°58' W 046°18'0 0.0
2015-Jan-14 18:33S 23°58' W 046°18'0 0.0
2015-Jan-14 17:33S 23°58' W 046°18'0 0.0
2015-Jan-14 16:33S 23°58' W 046°18'0 0.0
2015-Jan-14 15:30S 23°58' W 046°18'0 0.0
2015-Jan-14 14:33S 23°58' W 046°18'0 0.0
2015-Jan-14 13:33S 23°58' W 046°18'0 0.0
2015-Jan-14 12:30S 23°58' W 046°18'0 0.0
2015-Jan-14 11:33S 23°58' W 046°18'0 0.0
2015-Jan-14 10:33S 23°58' W 046°18'0 0.0
2015-Jan-14 09:30S 23°58' W 046°18'3 3.2
2015-Jan-14 08:33S 23°60' W 046°20'12 8.6
2015-Jan-14 07:11S 24°11' W 046°17'1 0.6
2015-Jan-14 06:05S 24°12' W 046°16'0 0.0
2015-Jan-14 05:23S 24°12' W 046°16'0 0.0
2015-Jan-14 04:29S 24°12' W 046°16'0 0.0
2015-Jan-14 03:29S 24°12' W 046°16'0 0.0
2015-Jan-14 02:23S 24°12' W 046°16'0 0.0
2015-Jan-14 01:29S 24°12' W 046°16'0 0.0
2015-Jan-14 00:29S 24°12' W 046°16'0 0.0
2015-Jan-13 23:26S 24°12' W 046°16'0 0.0
2015-Jan-13 20:26S 24°12' W 046°16'0 0.0
2015-Jan-13 05:26S 24°12' W 046°16'0 0.0
2015-Jan-13 04:20S 24°12' W 046°16'0 0.2
2015-Jan-13 03:32S 24°12' W 046°16'0 0.0
2015-Jan-13 02:32S 24°12' W 046°16'0 0.0
2015-Jan-13 01:32S 24°12' W 046°16'0 0.0
2015-Jan-13 00:32S 24°12' W 046°16'0 0.1
2015-Jan-12 23:32S 24°12' W 046°16'1 0.1
2015-Jan-12 13:09S 24°12' W 046°16'912.4
2015-Jan-12 12:26S 24°20' W 046°20'18612.4
2015-Jan-11 21:29S 27°12' W 047°40'1411.5
2015-Jan-11 20:15S 27°25' W 047°45'1011.4
2015-Jan-11 19:24S 27°34' W 047°49'910.9
2015-Jan-11 18:33S 27°43' W 047°52'14 9.5
2015-Jan-11 17:05S 27°56' W 047°58'  
2015-Jan-06 06:33S 35°02' W 056°02'  
Track history (hours):
 
Tides and Currents Weather Stations Pressure Air Temp Water Temp Dewpoint Dewpoint Depression Visibility Wind Speed Wind Dir Waves Ship Positions

Cosco China

Last reported at 2015-Jan-15 08:12 UTC. Time now 2015-Jan-29 22:25 UTC.
Position S 24°10' W 046°22'.
Warning: this ship's position is 14 days out of date.

Length 334 m; draft 11 m.

Type: Cargo ship. MMSI: 218536000.

Date/timePositionNaut miles runAvg speedWind from/ knotsBaromVisibWave heightAir tempDewpointWater temp
2015-Jan-15 08:12S 24°10' W 046°22'914.7
2015-Jan-15 07:33S 24°01' W 046°20'4 3.6
2015-Jan-15 06:33S 23°58' W 046°18'0 0.0
2015-Jan-15 05:33S 23°58' W 046°18'0 0.0
2015-Jan-15 04:33S 23°58' W 046°18'0 0.0
2015-Jan-15 03:30S 23°58' W 046°18'0 0.0
2015-Jan-15 02:33S 23°58' W 046°18'0 0.0
2015-Jan-15 01:33S 23°58' W 046°18'0 0.0
2015-Jan-15 00:30S 23°58' W 046°18'0 0.0
2015-Jan-14 23:33S 23°58' W 046°18'0 0.0
2015-Jan-14 22:33S 23°58' W 046°18'0 0.0
2015-Jan-14 21:21S 23°58' W 046°18'0 0.0
2015-Jan-14 20:33S 23°58' W 046°18'0 0.0
2015-Jan-14 19:30S 23°58' W 046°18'0 0.0
2015-Jan-14 18:33S 23°58' W 046°18'0 0.0
2015-Jan-14 17:33S 23°58' W 046°18'0 0.0
2015-Jan-14 16:33S 23°58' W 046°18'0 0.0
2015-Jan-14 15:30S 23°58' W 046°18'0 0.0
2015-Jan-14 14:33S 23°58' W 046°18'0 0.0
2015-Jan-14 13:33S 23°58' W 046°18'0 0.0
2015-Jan-14 12:30S 23°58' W 046°18'0 0.0
2015-Jan-14 11:33S 23°58' W 046°18'0 0.0
2015-Jan-14 10:33S 23°58' W 046°18'0 0.0
2015-Jan-14 09:30S 23°58' W 046°18'3 3.2
2015-Jan-14 08:33S 23°60' W 046°20'12 8.6
2015-Jan-14 07:11S 24°11' W 046°17'1 0.6
2015-Jan-14 06:05S 24°12' W 046°16'0 0.0
2015-Jan-14 05:23S 24°12' W 046°16'0 0.0
2015-Jan-14 04:29S 24°12' W 046°16'0 0.0
2015-Jan-14 03:29S 24°12' W 046°16'0 0.0
2015-Jan-14 02:23S 24°12' W 046°16'0 0.0
2015-Jan-14 01:29S 24°12' W 046°16'0 0.0
2015-Jan-14 00:29S 24°12' W 046°16'0 0.0
2015-Jan-13 23:26S 24°12' W 046°16'0 0.0
2015-Jan-13 20:26S 24°12' W 046°16'0 0.0
2015-Jan-13 05:26S 24°12' W 046°16'0 0.0
2015-Jan-13 04:20S 24°12' W 046°16'0 0.2
2015-Jan-13 03:32S 24°12' W 046°16'0 0.0
2015-Jan-13 02:32S 24°12' W 046°16'0 0.0
2015-Jan-13 01:32S 24°12' W 046°16'0 0.0
2015-Jan-13 00:32S 24°12' W 046°16'0 0.1
2015-Jan-12 23:32S 24°12' W 046°16'1 0.1
2015-Jan-12 13:09S 24°12' W 046°16'912.4
2015-Jan-12 12:26S 24°20' W 046°20'18612.4
2015-Jan-11 21:29S 27°12' W 047°40'1411.5
2015-Jan-11 20:15S 27°25' W 047°45'1011.4
2015-Jan-11 19:24S 27°34' W 047°49'910.9
2015-Jan-11 18:33S 27°43' W 047°52'14 9.5
2015-Jan-11 17:05S 27°56' W 047°58'  
2015-Jan-06 06:33S 35°02' W 056°02'  

Dump ship's entire track history